M/T Havva Ana — V7RE3 — position and weather

sailwx.info

Track history (hours):
 
Tides and Currents Weather Stations Pressure Air Temp Water Temp Dewpoint Dewpoint Depression Visibility Wind Speed Wind Dir Waves Ship Positions

M/T Havva Ana

Last reported at 2016-May-04 14:07 UTC. Time now 2016-May-06 05:26 UTC.
Position N 35°60' W 005°16'.

Length 124 m; draft 7.5 m.

Type: Tanker. MMSI: 538003488.

Date/timePositionNaut miles runAvg speedWind from/ knotsBaromVisibWave heightAir tempDewpointWater temp
2016-May-04 14:07N 35°60' W 005°16'712.5
2016-May-04 13:34N 35°58' W 005°24'231 8.9
2016-May-03 11:33N 37°27' W 009°50'1211.2
2016-May-03 10:32N 37°38' W 009°54'1111.4
2016-May-03 09:33N 37°49' W 009°57'1211.7
2016-May-03 08:34N 38°01' W 010°00'1211.5
2016-May-03 07:33N 38°12' W 010°03'1211.6
2016-May-03 06:33N 38°23' W 010°07'1211.7
2016-May-03 05:33N 38°35' W 010°10'1211.8
2016-May-03 04:33N 38°46' W 010°12'  
2016-Apr-30 12:33N 49°50' W 003°20'1211.2
2016-Apr-30 11:27N 49°56' W 003°03'10413.0
2016-Apr-30 03:29N 50°25' W 000°27'1111.6
2016-Apr-30 02:33N 50°28' W 000°11'1111.1
2016-Apr-30 01:33N 50°30' E 000°06'5111.4
2016-Apr-29 21:08N 50°54' E 001°17'711.9
2016-Apr-29 20:32N 50°59' E 001°24'1110.8
2016-Apr-29 19:33N 51°07' E 001°36'10 9.9
2016-Apr-29 18:34N 51°15' E 001°46'1010.0
2016-Apr-29 17:33N 51°24' E 001°53'10 9.9
2016-Apr-29 16:33N 51°31' E 002°04'10 9.9
2016-Apr-29 15:33N 51°38' E 002°15'3611.2
2016-Apr-29 12:20N 52°02' E 002°58'911.7
2016-Apr-29 11:32N 52°03' E 003°13'1111.3
2016-Apr-29 10:33N 52°03' E 003°31'1111.2
2016-Apr-29 09:33N 52°04' E 003°49'10 9.9
2016-Apr-29 08:33N 51°59' E 004°04'3 2.9
2016-Apr-29 07:31N 51°57' E 004°08'0 0.0
2016-Apr-29 06:31N 51°57' E 004°08'0 0.0
2016-Apr-29 05:31N 51°57' E 004°08'0 0.0
2016-Apr-29 04:31N 51°57' E 004°08'0 0.0
2016-Apr-29 03:31N 51°57' E 004°08'0 0.0
2016-Apr-29 02:31N 51°57' E 004°08'0 0.0
2016-Apr-29 01:31N 51°57' E 004°08'0 0.0
2016-Apr-29 00:31N 51°57' E 004°08'0 0.0
2016-Apr-28 23:31N 51°57' E 004°08'0 0.0
2016-Apr-28 22:31N 51°57' E 004°08'0 0.0
2016-Apr-28 21:31N 51°57' E 004°08'0 0.0
2016-Apr-28 20:31N 51°57' E 004°08'0 0.0
2016-Apr-28 19:31N 51°57' E 004°08'0 0.0
2016-Apr-28 18:31N 51°57' E 004°08'0 0.0
2016-Apr-28 17:31N 51°57' E 004°08'0 0.0
2016-Apr-28 16:31N 51°57' E 004°08'0 0.0
2016-Apr-28 15:31N 51°57' E 004°08'0 0.0
2016-Apr-28 14:28N 51°57' E 004°08'0 0.0
2016-Apr-28 13:31N 51°57' E 004°08'0 0.0
2016-Apr-28 12:31N 51°57' E 004°08'0 0.0
2016-Apr-28 11:31N 51°57' E 004°08'0 0.0
2016-Apr-28 10:28N 51°57' E 004°08'0 0.0
2016-Apr-28 09:28N 51°57' E 004°08'0 0.0
2016-Apr-28 08:31N 51°57' E 004°08'0 0.0
2016-Apr-28 07:31N 51°57' E 004°08'0 0.0
2016-Apr-28 06:31N 51°57' E 004°08'0 0.0
2016-Apr-28 05:28N 51°57' E 004°08'0 0.0
2016-Apr-28 04:31N 51°57' E 004°08'0 0.0
2016-Apr-28 03:31N 51°57' E 004°08'0 0.0
2016-Apr-28 02:28N 51°57' E 004°08'0 0.0
2016-Apr-28 01:31N 51°57' E 004°08'0 0.0
2016-Apr-28 00:31N 51°57' E 004°08'0 0.0
2016-Apr-27 23:31N 51°57' E 004°08'0 0.0
2016-Apr-27 22:31N 51°57' E 004°08'0 0.0
2016-Apr-27 21:31N 51°57' E 004°08'0 0.0
2016-Apr-27 20:31N 51°57' E 004°08'0 0.0
2016-Apr-27 19:31N 51°57' E 004°08'0 0.0
2016-Apr-27 18:31N 51°57' E 004°08'0 0.0
2016-Apr-27 17:31N 51°57' E 004°08'0 0.0
2016-Apr-27 16:31N 51°57' E 004°08'0 0.0
2016-Apr-27 15:31N 51°57' E 004°08'0 0.0
2016-Apr-27 14:28N 51°57' E 004°08'0 0.0
2016-Apr-27 13:28N 51°57' E 004°08'0 0.0
2016-Apr-27 12:28N 51°57' E 004°08'0 0.0
2016-Apr-27 11:31N 51°57' E 004°08'0 0.0
2016-Apr-27 10:31N 51°57' E 004°08'0 0.0
2016-Apr-27 09:28N 51°57' E 004°08'0 0.0
2016-Apr-27 08:28N 51°57' E 004°08'0 0.0
2016-Apr-27 07:31N 51°57' E 004°08'0 0.0
2016-Apr-27 06:31N 51°57' E 004°08'0 0.0
2016-Apr-27 05:31N 51°57' E 004°08'0 0.0
2016-Apr-27 04:31N 51°57' E 004°08'0 0.0
2016-Apr-27 03:28N 51°57' E 004°08'0 0.0
2016-Apr-27 02:31N 51°57' E 004°08'0 0.0
2016-Apr-27 01:31N 51°57' E 004°08'0 0.0
2016-Apr-27 00:31N 51°57' E 004°08'0 0.0
2016-Apr-26 23:31N 51°57' E 004°08'0 0.0
2016-Apr-26 22:31N 51°57' E 004°08'0 0.0
2016-Apr-26 21:31N 51°57' E 004°08'0 0.0
2016-Apr-26 20:31N 51°57' E 004°08'0 0.0
2016-Apr-26 19:31N 51°57' E 004°08'0 0.0
2016-Apr-26 18:31N 51°57' E 004°08'0 0.3
2016-Apr-26 17:33N 51°58' E 004°08'2 2.3
2016-Apr-26 16:33N 51°57' E 004°11'7 6.0
2016-Apr-26 15:25N 51°53' E 004°21'0 0.0
2016-Apr-26 14:25N 51°53' E 004°21'0 0.0
2016-Apr-26 11:16N 51°53' E 004°21'0 0.0
2016-Apr-26 10:31N 51°53' E 004°21'0 0.0
2016-Apr-26 09:16N 51°53' E 004°21'0 0.0
2016-Apr-26 08:28N 51°53' E 004°21'0 0.0
2016-Apr-26 07:28N 51°53' E 004°21'0 0.0
2016-Apr-26 06:31N 51°53' E 004°21'0 0.0
2016-Apr-26 05:16N 51°53' E 004°21'0 0.0
2016-Apr-26 04:22N 51°53' E 004°21'0 0.0
2016-Apr-26 03:28N 51°53' E 004°21'0 0.0
2016-Apr-26 02:28N 51°53' E 004°21'0 0.0
2016-Apr-26 01:22N 51°53' E 004°21'0 0.0
2016-Apr-26 00:22N 51°53' E 004°21'0 0.0
2016-Apr-25 23:28N 51°53' E 004°21'0 0.0
2016-Apr-25 22:28N 51°53' E 004°21'0 0.0
2016-Apr-25 21:28N 51°53' E 004°21'0 0.0
2016-Apr-25 20:16N 51°53' E 004°21'0 0.0
2016-Apr-25 19:31N 51°53' E 004°21'0 0.0
2016-Apr-25 18:22N 51°53' E 004°21'0 0.0
2016-Apr-25 17:25N 51°53' E 004°21'0 0.0
2016-Apr-25 16:10N 51°53' E 004°21'0 0.0
2016-Apr-25 15:25N 51°53' E 004°21'0 0.0
2016-Apr-25 14:33N 51°53' E 004°21'0 0.0
2016-Apr-25 13:33N 51°53' E 004°21'0 0.0
2016-Apr-25 12:27N 51°53' E 004°21'0 0.0
2016-Apr-25 11:33N 51°53' E 004°21'0 0.0
2016-Apr-25 10:24N 51°53' E 004°20'0 0.0
2016-Apr-25 09:33N 51°53' E 004°20'0 0.0
2016-Apr-25 08:33N 51°53' E 004°20'0 0.0
2016-Apr-25 07:30N 51°53' E 004°21'0 0.0
2016-Apr-25 06:30N 51°53' E 004°21'0 0.0
2016-Apr-25 05:33N 51°53' E 004°21'0 0.0
2016-Apr-25 04:27N 51°53' E 004°21'0 0.0
2016-Apr-25 03:33N 51°53' E 004°21'0 0.5
2016-Apr-25 02:33N 51°53' E 004°21'2 1.4
2016-Apr-25 01:22N 51°53' E 004°18'0 0.0
2016-Apr-24 18:22N 51°53' E 004°18'0 0.0
2016-Apr-24 17:28N 51°53' E 004°18'0 0.0
2016-Apr-24 15:16N 51°53' E 004°18'0 0.0
2016-Apr-24 14:25N 51°53' E 004°18'  
Track history (hours):
 
Tides and Currents Weather Stations Pressure Air Temp Water Temp Dewpoint Dewpoint Depression Visibility Wind Speed Wind Dir Waves Ship Positions

M/T Havva Ana

Last reported at 2016-May-04 14:07 UTC. Time now 2016-May-06 05:26 UTC.
Position N 35°60' W 005°16'.

Length 124 m; draft 7.5 m.

Type: Tanker. MMSI: 538003488.

Date/timePositionNaut miles runAvg speedWind from/ knotsBaromVisibWave heightAir tempDewpointWater temp
2016-May-04 14:07N 35°60' W 005°16'712.5
2016-May-04 13:34N 35°58' W 005°24'231 8.9
2016-May-03 11:33N 37°27' W 009°50'1211.2
2016-May-03 10:32N 37°38' W 009°54'1111.4
2016-May-03 09:33N 37°49' W 009°57'1211.7
2016-May-03 08:34N 38°01' W 010°00'1211.5
2016-May-03 07:33N 38°12' W 010°03'1211.6
2016-May-03 06:33N 38°23' W 010°07'1211.7
2016-May-03 05:33N 38°35' W 010°10'1211.8
2016-May-03 04:33N 38°46' W 010°12'  
2016-Apr-30 12:33N 49°50' W 003°20'1211.2
2016-Apr-30 11:27N 49°56' W 003°03'10413.0
2016-Apr-30 03:29N 50°25' W 000°27'1111.6
2016-Apr-30 02:33N 50°28' W 000°11'1111.1
2016-Apr-30 01:33N 50°30' E 000°06'5111.4
2016-Apr-29 21:08N 50°54' E 001°17'711.9
2016-Apr-29 20:32N 50°59' E 001°24'1110.8
2016-Apr-29 19:33N 51°07' E 001°36'10 9.9
2016-Apr-29 18:34N 51°15' E 001°46'1010.0
2016-Apr-29 17:33N 51°24' E 001°53'10 9.9
2016-Apr-29 16:33N 51°31' E 002°04'10 9.9
2016-Apr-29 15:33N 51°38' E 002°15'3611.2
2016-Apr-29 12:20N 52°02' E 002°58'911.7
2016-Apr-29 11:32N 52°03' E 003°13'1111.3
2016-Apr-29 10:33N 52°03' E 003°31'1111.2
2016-Apr-29 09:33N 52°04' E 003°49'10 9.9
2016-Apr-29 08:33N 51°59' E 004°04'3 2.9
2016-Apr-29 07:31N 51°57' E 004°08'0 0.0
2016-Apr-29 06:31N 51°57' E 004°08'0 0.0
2016-Apr-29 05:31N 51°57' E 004°08'0 0.0
2016-Apr-29 04:31N 51°57' E 004°08'0 0.0
2016-Apr-29 03:31N 51°57' E 004°08'0 0.0
2016-Apr-29 02:31N 51°57' E 004°08'0 0.0
2016-Apr-29 01:31N 51°57' E 004°08'0 0.0
2016-Apr-29 00:31N 51°57' E 004°08'0 0.0
2016-Apr-28 23:31N 51°57' E 004°08'0 0.0
2016-Apr-28 22:31N 51°57' E 004°08'0 0.0
2016-Apr-28 21:31N 51°57' E 004°08'0 0.0
2016-Apr-28 20:31N 51°57' E 004°08'0 0.0
2016-Apr-28 19:31N 51°57' E 004°08'0 0.0
2016-Apr-28 18:31N 51°57' E 004°08'0 0.0
2016-Apr-28 17:31N 51°57' E 004°08'0 0.0
2016-Apr-28 16:31N 51°57' E 004°08'0 0.0
2016-Apr-28 15:31N 51°57' E 004°08'0 0.0
2016-Apr-28 14:28N 51°57' E 004°08'0 0.0
2016-Apr-28 13:31N 51°57' E 004°08'0 0.0
2016-Apr-28 12:31N 51°57' E 004°08'0 0.0
2016-Apr-28 11:31N 51°57' E 004°08'0 0.0
2016-Apr-28 10:28N 51°57' E 004°08'0 0.0
2016-Apr-28 09:28N 51°57' E 004°08'0 0.0
2016-Apr-28 08:31N 51°57' E 004°08'0 0.0
2016-Apr-28 07:31N 51°57' E 004°08'0 0.0
2016-Apr-28 06:31N 51°57' E 004°08'0 0.0
2016-Apr-28 05:28N 51°57' E 004°08'0 0.0
2016-Apr-28 04:31N 51°57' E 004°08'0 0.0
2016-Apr-28 03:31N 51°57' E 004°08'0 0.0
2016-Apr-28 02:28N 51°57' E 004°08'0 0.0
2016-Apr-28 01:31N 51°57' E 004°08'0 0.0
2016-Apr-28 00:31N 51°57' E 004°08'0 0.0
2016-Apr-27 23:31N 51°57' E 004°08'0 0.0
2016-Apr-27 22:31N 51°57' E 004°08'0 0.0
2016-Apr-27 21:31N 51°57' E 004°08'0 0.0
2016-Apr-27 20:31N 51°57' E 004°08'0 0.0
2016-Apr-27 19:31N 51°57' E 004°08'0 0.0
2016-Apr-27 18:31N 51°57' E 004°08'0 0.0
2016-Apr-27 17:31N 51°57' E 004°08'0 0.0
2016-Apr-27 16:31N 51°57' E 004°08'0 0.0
2016-Apr-27 15:31N 51°57' E 004°08'0 0.0
2016-Apr-27 14:28N 51°57' E 004°08'0 0.0
2016-Apr-27 13:28N 51°57' E 004°08'0 0.0
2016-Apr-27 12:28N 51°57' E 004°08'0 0.0
2016-Apr-27 11:31N 51°57' E 004°08'0 0.0
2016-Apr-27 10:31N 51°57' E 004°08'0 0.0
2016-Apr-27 09:28N 51°57' E 004°08'0 0.0
2016-Apr-27 08:28N 51°57' E 004°08'0 0.0
2016-Apr-27 07:31N 51°57' E 004°08'0 0.0
2016-Apr-27 06:31N 51°57' E 004°08'0 0.0
2016-Apr-27 05:31N 51°57' E 004°08'0 0.0
2016-Apr-27 04:31N 51°57' E 004°08'0 0.0
2016-Apr-27 03:28N 51°57' E 004°08'0 0.0
2016-Apr-27 02:31N 51°57' E 004°08'0 0.0
2016-Apr-27 01:31N 51°57' E 004°08'0 0.0
2016-Apr-27 00:31N 51°57' E 004°08'0 0.0
2016-Apr-26 23:31N 51°57' E 004°08'0 0.0
2016-Apr-26 22:31N 51°57' E 004°08'0 0.0
2016-Apr-26 21:31N 51°57' E 004°08'0 0.0
2016-Apr-26 20:31N 51°57' E 004°08'0 0.0
2016-Apr-26 19:31N 51°57' E 004°08'0 0.0
2016-Apr-26 18:31N 51°57' E 004°08'0 0.3
2016-Apr-26 17:33N 51°58' E 004°08'2 2.3
2016-Apr-26 16:33N 51°57' E 004°11'7 6.0
2016-Apr-26 15:25N 51°53' E 004°21'0 0.0
2016-Apr-26 14:25N 51°53' E 004°21'0 0.0
2016-Apr-26 11:16N 51°53' E 004°21'0 0.0
2016-Apr-26 10:31N 51°53' E 004°21'0 0.0
2016-Apr-26 09:16N 51°53' E 004°21'0 0.0
2016-Apr-26 08:28N 51°53' E 004°21'0 0.0
2016-Apr-26 07:28N 51°53' E 004°21'0 0.0
2016-Apr-26 06:31N 51°53' E 004°21'0 0.0
2016-Apr-26 05:16N 51°53' E 004°21'0 0.0
2016-Apr-26 04:22N 51°53' E 004°21'0 0.0
2016-Apr-26 03:28N 51°53' E 004°21'0 0.0
2016-Apr-26 02:28N 51°53' E 004°21'0 0.0
2016-Apr-26 01:22N 51°53' E 004°21'0 0.0
2016-Apr-26 00:22N 51°53' E 004°21'0 0.0
2016-Apr-25 23:28N 51°53' E 004°21'0 0.0
2016-Apr-25 22:28N 51°53' E 004°21'0 0.0
2016-Apr-25 21:28N 51°53' E 004°21'0 0.0
2016-Apr-25 20:16N 51°53' E 004°21'0 0.0
2016-Apr-25 19:31N 51°53' E 004°21'0 0.0
2016-Apr-25 18:22N 51°53' E 004°21'0 0.0
2016-Apr-25 17:25N 51°53' E 004°21'0 0.0
2016-Apr-25 16:10N 51°53' E 004°21'0 0.0
2016-Apr-25 15:25N 51°53' E 004°21'0 0.0
2016-Apr-25 14:33N 51°53' E 004°21'0 0.0
2016-Apr-25 13:33N 51°53' E 004°21'0 0.0
2016-Apr-25 12:27N 51°53' E 004°21'0 0.0
2016-Apr-25 11:33N 51°53' E 004°21'0 0.0
2016-Apr-25 10:24N 51°53' E 004°20'0 0.0
2016-Apr-25 09:33N 51°53' E 004°20'0 0.0
2016-Apr-25 08:33N 51°53' E 004°20'0 0.0
2016-Apr-25 07:30N 51°53' E 004°21'0 0.0
2016-Apr-25 06:30N 51°53' E 004°21'0 0.0
2016-Apr-25 05:33N 51°53' E 004°21'0 0.0
2016-Apr-25 04:27N 51°53' E 004°21'0 0.0
2016-Apr-25 03:33N 51°53' E 004°21'0 0.5
2016-Apr-25 02:33N 51°53' E 004°21'2 1.4
2016-Apr-25 01:22N 51°53' E 004°18'0 0.0
2016-Apr-24 18:22N 51°53' E 004°18'0 0.0
2016-Apr-24 17:28N 51°53' E 004°18'0 0.0
2016-Apr-24 15:16N 51°53' E 004°18'0 0.0
2016-Apr-24 14:25N 51°53' E 004°18'  

Dump ship's entire track history